Time;durP1;ratioP1;P1;durP2;ratioP2;P2;SDS_P1;SDS_P2;PMS_P1;PMS_P2;Temp;Humidity;BMP_temperature;BMP_pressure;BME280_temperature;BME280_humidity;BME280_pressure;Samples;Min_cycle;Max_cycle;Signal;HPM_P1;HPM_P2
2022/04/21 00:00:30;;;;;;;0.80;0.60;;;10.40;99.90;;;;;;5012588;28;20418;-72
2022/04/21 00:02:55;;;;;;;0.80;0.67;;;10.30;99.90;;;;;;5012953;28;20399;-73
2022/04/21 00:05:21;;;;;;;0.80;0.60;;;10.30;99.90;;;;;;5027556;28;20249;-73
2022/04/21 00:07:48;;;;;;;1.10;0.60;;;10.20;99.90;;;;;;5012755;28;20187;-72
2022/04/21 00:10:14;;;;;;;0.80;0.50;;;10.20;99.90;;;;;;5012351;28;20159;-72
2022/04/21 00:12:40;;;;;;;0.80;0.50;;;10.20;99.90;;;;;;5012665;28;20901;-73
2022/04/21 00:15:06;;;;;;;0.80;0.50;;;10.10;99.90;;;;;;5012634;28;20498;-73
2022/04/21 00:17:32;;;;;;;0.80;0.60;;;10.00;99.90;;;;;;5012445;28;20219;-73
2022/04/21 00:19:59;;;;;;;0.80;0.60;;;10.00;99.90;;;;;;5012269;28;20403;-73
2022/04/21 00:25:09;;;;;;;0.80;0.50;;;9.90;99.90;;;;;;5012379;28;20460;-72
2022/04/21 00:27:42;;;;;;;1.40;1.27;;;9.80;99.90;;;;;;5012279;28;20808;-72
2022/04/21 00:30:09;;;;;;;0.70;0.50;;;9.80;99.90;;;;;;5011543;28;20258;-72
2022/04/21 00:32:36;;;;;;;1.37;1.27;;;9.80;99.90;;;;;;5012244;28;20403;-72
2022/04/21 00:35:03;;;;;;;1.17;0.80;;;9.70;99.90;;;;;;5011119;28;20783;-72
2022/04/21 00:37:28;;;;;;;0.80;0.50;;;9.70;99.90;;;;;;5012220;28;20423;-72
2022/04/21 00:39:54;;;;;;;0.80;0.57;;;9.70;99.90;;;;;;5010801;28;20411;-72
2022/04/21 00:42:20;;;;;;;2.10;0.77;;;9.60;99.90;;;;;;5012128;28;20175;-72
2022/04/21 00:44:46;;;;;;;0.80;0.50;;;9.70;99.90;;;;;;5012262;28;20207;-72
2022/04/21 00:47:12;;;;;;;1.20;0.80;;;9.70;99.90;;;;;;5011979;28;20184;-72
2022/04/21 00:49:38;;;;;;;0.80;0.60;;;9.60;99.90;;;;;;5012175;28;20494;-72
2022/04/21 00:52:04;;;;;;;0.77;0.50;;;9.70;99.90;;;;;;5011949;28;20446;-72
2022/04/21 00:54:31;;;;;;;0.80;0.50;;;9.60;99.90;;;;;;5012066;28;20485;-73
2022/04/21 00:56:57;;;;;;;1.03;0.60;;;9.60;99.90;;;;;;5012257;28;20192;-72
2022/04/21 00:59:24;;;;;;;0.70;0.50;;;9.60;99.90;;;;;;5012203;28;21008;-72
2022/04/21 01:04:35;;;;;;;0.80;0.70;;;9.50;99.90;;;;;;5016147;28;20453;-72
2022/04/21 01:07:01;;;;;;;0.83;0.57;;;9.50;99.90;;;;;;5015851;28;20419;-73
2022/04/21 01:09:27;;;;;;;0.80;0.50;;;9.50;99.90;;;;;;5016023;28;20175;-74
2022/04/21 01:11:53;;;;;;;0.80;0.60;;;9.40;99.90;;;;;;5015679;28;20399;-72
2022/04/21 01:14:19;;;;;;;1.23;0.70;;;9.40;99.90;;;;;;5015839;28;20259;-72
2022/04/21 01:16:46;;;;;;;0.80;0.60;;;9.40;99.90;;;;;;5015714;28;20435;-72
2022/04/21 01:19:11;;;;;;;0.70;0.50;;;9.30;99.90;;;;;;5015737;28;20412;-72
2022/04/21 01:21:37;;;;;;;0.80;0.60;;;9.30;99.90;;;;;;5015459;28;20507;-72
2022/04/21 01:24:07;;;;;;;0.80;0.60;;;9.30;99.90;;;;;;5015527;28;20219;-72
2022/04/21 01:26:36;;;;;;;0.80;0.63;;;9.30;99.90;;;;;;5015709;28;20180;-72
2022/04/21 01:29:03;;;;;;;0.80;0.50;;;9.20;99.90;;;;;;5015900;28;20939;-72
2022/04/21 01:31:30;;;;;;;0.77;0.50;;;9.20;99.90;;;;;;5015513;28;20409;-72
2022/04/21 01:33:55;;;;;;;1.00;0.90;;;9.20;99.90;;;;;;5015459;28;20403;-72
2022/04/21 01:36:21;;;;;;;0.80;0.50;;;9.20;99.90;;;;;;5015478;28;21007;-72
2022/04/21 01:41:44;;;;;;;0.80;0.60;;;9.10;99.90;;;;;;5013808;28;20179;-72
2022/04/21 01:44:10;;;;;;;1.50;0.83;;;9.10;99.90;;;;;;5015183;28;20450;-72
2022/04/21 01:46:35;;;;;;;1.07;0.97;;;9.10;99.90;;;;;;5015314;28;20188;-72
2022/04/21 01:49:01;;;;;;;0.80;0.50;;;9.10;99.90;;;;;;5015353;28;20201;-72
2022/04/21 01:51:27;;;;;;;0.80;0.70;;;9.00;99.90;;;;;;5015116;28;20165;-72
2022/04/21 01:53:52;;;;;;;0.70;0.50;;;9.00;99.90;;;;;;5014662;28;20168;-72
2022/04/21 01:56:18;;;;;;;0.70;0.50;;;9.00;99.90;;;;;;5014146;28;20200;-72
2022/04/21 01:58:45;;;;;;;0.93;0.83;;;9.00;99.90;;;;;;5013881;28;20204;-72
2022/04/21 02:01:10;;;;;;;0.70;0.50;;;8.90;99.90;;;;;;5013678;28;20194;-72
2022/04/21 02:03:36;;;;;;;0.80;0.70;;;8.90;99.90;;;;;;5013591;28;20462;-72
2022/04/21 02:06:01;;;;;;;0.70;0.50;;;8.90;99.90;;;;;;5013615;28;20203;-72
2022/04/21 02:08:27;;;;;;;0.70;0.50;;;8.90;99.90;;;;;;5013702;28;20164;-72
2022/04/21 02:10:53;;;;;;;0.77;0.50;;;8.80;99.90;;;;;;5013531;28;20164;-72
2022/04/21 02:13:19;;;;;;;0.70;0.50;;;8.80;99.90;;;;;;5028512;28;20171;-72
2022/04/21 02:15:44;;;;;;;0.70;0.50;;;8.80;99.90;;;;;;5013641;28;20415;-74
2022/04/21 02:18:10;;;;;;;1.10;0.80;;;8.80;99.90;;;;;;5013656;28;20669;-74
2022/04/21 02:20:35;;;;;;;0.70;0.50;;;8.70;99.90;;;;;;5013205;28;20192;-74
2022/04/21 02:23:01;;;;;;;0.70;0.50;;;8.70;99.90;;;;;;5013607;28;20247;-72
2022/04/21 02:25:27;;;;;;;0.80;0.53;;;8.70;99.90;;;;;;5013324;28;20203;-72
2022/04/21 02:27:52;;;;;;;0.80;0.70;;;8.60;99.90;;;;;;5013433;28;20228;-72
2022/04/21 02:30:19;;;;;;;0.80;0.50;;;8.60;99.90;;;;;;5013177;28;20171;-72
2022/04/21 02:32:45;;;;;;;1.77;1.53;;;8.60;99.90;;;;;;5013493;28;20260;-72
2022/04/21 02:35:11;;;;;;;0.80;0.60;;;8.60;99.90;;;;;;5013282;28;20917;-72
2022/04/21 02:37:46;;;;;;;0.80;0.60;;;8.50;99.90;;;;;;5013149;28;20261;-72
2022/04/21 02:40:12;;;;;;;1.00;0.63;;;8.50;99.90;;;;;;5028173;28;20422;-72
2022/04/21 02:42:39;;;;;;;0.77;0.57;;;8.50;99.90;;;;;;5013330;28;20407;-72
2022/04/21 02:45:09;;;;;;;0.80;0.50;;;8.40;99.90;;;;;;5013127;28;20450;-72
2022/04/21 02:47:39;;;;;;;1.53;0.97;;;8.40;99.90;;;;;;5013159;28;20424;-72
2022/04/21 02:50:06;;;;;;;0.70;0.53;;;8.30;99.90;;;;;;5012990;28;20411;-72
2022/04/21 02:52:35;;;;;;;0.80;0.50;;;8.30;99.90;;;;;;5012504;28;20439;-72
2022/04/21 02:57:45;;;;;;;0.80;0.50;;;8.20;99.90;;;;;;5013728;28;20430;-72
2022/04/21 03:00:11;;;;;;;0.80;0.67;;;8.20;99.90;;;;;;5013736;28;20908;-72
2022/04/21 03:02:37;;;;;;;1.07;0.97;;;8.10;99.90;;;;;;5013912;28;20760;-72
2022/04/21 03:05:03;;;;;;;0.70;0.50;;;8.10;99.90;;;;;;5013577;28;20459;-72
2022/04/21 03:07:28;;;;;;;0.80;0.77;;;8.10;99.90;;;;;;5013683;28;20270;-72
2022/04/21 03:09:54;;;;;;;1.63;1.03;;;8.00;99.90;;;;;;5013798;28;20234;-72
2022/04/21 03:12:22;;;;;;;0.70;0.50;;;8.00;99.90;;;;;;5013429;28;20676;-71
2022/04/21 03:14:49;;;;;;;0.80;0.70;;;8.00;99.90;;;;;;5013700;28;20196;-72
2022/04/21 03:17:15;;;;;;;0.80;0.67;;;8.00;99.90;;;;;;5013487;28;20427;-72
2022/04/21 03:19:40;;;;;;;0.90;0.77;;;7.90;99.90;;;;;;5013519;28;20478;-72
2022/04/21 03:24:54;;;;;;;1.43;1.33;;;7.80;99.90;;;;;;5012914;28;20227;-71
2022/04/21 03:27:19;;;;;;;1.57;0.97;;;7.80;99.90;;;;;;5013154;28;20423;-71
2022/04/21 03:29:45;;;;;;;0.90;0.60;;;7.70;99.90;;;;;;5013354;28;20172;-71
2022/04/21 03:32:13;;;;;;;0.70;0.50;;;7.70;99.90;;;;;;5012889;28;20168;-71
2022/04/21 03:34:42;;;;;;;2.40;2.30;;;7.70;99.90;;;;;;5013259;28;20263;-71
2022/04/21 03:37:15;;;;;;;0.70;0.50;;;7.60;99.90;;;;;;5013195;28;20431;-71
2022/04/21 03:39:42;;;;;;;0.70;0.50;;;7.60;99.90;;;;;;5013216;28;20776;-71
2022/04/21 03:42:20;;;;;;;0.77;0.50;;;7.60;99.90;;;;;;5012764;28;20407;-71
2022/04/21 03:44:46;;;;;;;0.70;0.50;;;7.50;99.90;;;;;;5013083;28;21038;-72
2022/04/21 03:47:12;;;;;;;1.37;0.70;;;7.50;99.90;;;;;;5013065;28;20451;-72
2022/04/21 03:49:37;;;;;;;0.73;0.50;;;7.40;99.90;;;;;;5012970;28;20923;-72
2022/04/21 03:52:03;;;;;;;0.70;0.60;;;7.40;99.90;;;;;;5011515;28;20634;-72
2022/04/21 03:54:29;;;;;;;0.73;0.57;;;7.30;99.90;;;;;;5012859;28;20191;-72
2022/04/21 03:56:54;;;;;;;0.77;0.57;;;7.30;99.90;;;;;;5028144;28;20442;-72
2022/04/21 03:59:23;;;;;;;0.80;0.60;;;7.30;99.90;;;;;;5012964;28;20541;-72
2022/04/21 04:01:49;;;;;;;0.80;0.60;;;7.20;99.90;;;;;;5012593;28;20175;-72
2022/04/21 04:04:15;;;;;;;0.80;0.60;;;7.20;99.90;;;;;;5012723;28;20516;-71
2022/04/21 04:12:11;;;;;;;0.90;0.70;;;7.10;99.90;;;;;;5012466;28;20431;-72
2022/04/21 04:14:38;;;;;;;0.80;0.50;;;7.10;99.90;;;;;;5012472;28;20430;-72
2022/04/21 04:17:06;;;;;;;0.70;0.50;;;7.00;99.90;;;;;;5012551;28;20836;-72
2022/04/21 04:19:35;;;;;;;0.77;0.57;;;7.00;99.90;;;;;;5012247;28;20395;-72
2022/04/21 04:22:04;;;;;;;0.80;0.50;;;7.00;99.90;;;;;;5012325;28;20405;-72
2022/04/21 04:24:29;;;;;;;0.70;0.50;;;7.00;99.90;;;;;;5012467;28;20446;-72
2022/04/21 04:26:55;;;;;;;0.70;0.50;;;7.00;99.90;;;;;;5012435;28;20419;-72
2022/04/21 04:29:23;;;;;;;0.80;0.73;;;7.00;99.90;;;;;;5012458;28;20532;-72
2022/04/21 04:31:51;;;;;;;1.37;0.80;;;6.90;99.90;;;;;;5012252;28;20395;-72
2022/04/21 04:34:17;;;;;;;0.70;0.50;;;6.90;99.90;;;;;;5010891;28;21047;-72
2022/04/21 04:36:44;;;;;;;0.80;0.70;;;6.90;99.90;;;;;;5012260;28;20430;-71
2022/04/21 04:39:09;;;;;;;0.70;0.60;;;6.90;99.90;;;;;;5012388;28;20412;-71
2022/04/21 04:44:19;;;;;;;0.80;0.60;;;6.90;99.90;;;;;;5012240;28;20257;-71
2022/04/21 04:46:45;;;;;;;0.87;0.80;;;7.00;99.90;;;;;;5012004;28;20423;-72
2022/04/21 04:49:11;;;;;;;0.70;0.50;;;7.00;99.90;;;;;;5012218;28;20641;-72
2022/04/21 04:51:41;;;;;;;0.80;0.70;;;7.00;99.90;;;;;;5012263;28;20701;-73
2022/04/21 04:54:08;;;;;;;0.70;0.60;;;7.00;99.90;;;;;;5012132;28;20403;-71
2022/04/21 04:56:35;;;;;;;1.70;1.60;;;7.10;99.90;;;;;;5012107;28;20429;-71
2022/04/21 04:59:01;;;;;;;0.80;0.57;;;7.10;99.90;;;;;;5012206;28;20908;-71
2022/04/21 05:01:41;;;;;;;1.10;1.00;;;7.20;99.90;;;;;;5011872;28;20419;-72
2022/04/21 05:04:25;;;;;;;0.80;0.57;;;7.20;99.90;;;;;;5012015;28;20497;-71
2022/04/21 05:06:53;;;;;;;0.80;0.60;;;7.30;99.90;;;;;;5012024;28;20423;-71
2022/04/21 05:09:20;;;;;;;2.00;1.90;;;7.40;99.90;;;;;;5012117;28;20489;-71
2022/04/21 05:11:48;;;;;;;0.70;0.53;;;7.50;99.90;;;;;;5011761;28;20407;-71
2022/04/21 05:14:14;;;;;;;2.03;1.63;;;7.70;99.90;;;;;;5012041;28;20411;-72
2022/04/21 05:16:40;;;;;;;0.83;0.70;;;7.90;99.90;;;;;;5011921;28;20423;-72
2022/04/21 05:19:10;;;;;;;0.73;0.60;;;8.00;99.90;;;;;;5012046;28;20399;-72
2022/04/21 05:21:37;;;;;;;1.13;0.90;;;8.20;99.90;;;;;;5011682;28;20423;-71
2022/04/21 05:24:04;;;;;;;1.10;0.60;;;8.30;99.90;;;;;;5011843;28;20914;-71
2022/04/21 05:26:32;;;;;;;0.90;0.60;;;8.40;99.90;;;;;;5011876;28;20443;-71
2022/04/21 05:28:59;;;;;;;1.00;0.90;;;8.60;99.90;;;;;;5011945;28;20395;-72
2022/04/21 05:31:26;;;;;;;0.80;0.60;;;8.70;99.90;;;;;;5011555;28;20399;-72
2022/04/21 05:33:53;;;;;;;0.70;0.50;;;8.90;99.90;;;;;;5011787;28;20443;-72
2022/04/21 05:36:19;;;;;;;0.90;0.80;;;9.20;99.90;;;;;;5011810;28;20851;-72
2022/04/21 05:38:46;;;;;;;1.73;0.93;;;9.80;99.90;;;;;;5011723;28;20758;-72
2022/04/21 05:41:13;;;;;;;0.90;0.80;;;10.60;99.90;;;;;;5011488;28;20403;-72
2022/04/21 05:43:42;;;;;;;0.70;0.50;;;11.30;99.90;;;;;;5026751;28;20780;-72
2022/04/21 05:46:09;;;;;;;1.37;0.70;;;12.20;99.90;;;;;;5011451;28;20454;-72
2022/04/21 05:48:36;;;;;;;2.20;0.67;;;13.00;99.90;;;;;;5013182;28;20449;-72
2022/04/21 05:51:02;;;;;;;1.00;0.90;;;13.70;99.90;;;;;;5013878;28;20403;-73
2022/04/21 05:53:28;;;;;;;5.00;1.40;;;14.50;99.90;;;;;;5015141;28;20402;-72
2022/04/21 05:55:54;;;;;;;1.60;0.97;;;15.20;99.90;;;;;;5015195;28;21007;-72
2022/04/21 05:58:22;;;;;;;1.70;1.07;;;16.00;99.90;;;;;;5014972;28;20458;-72
2022/04/21 06:00:48;;;;;;;1.20;1.10;;;16.70;99.90;;;;;;5014783;28;20439;-72
2022/04/21 06:03:14;;;;;;;1.97;1.50;;;17.40;99.90;;;;;;5015077;28;20512;-72
2022/04/21 06:05:39;;;;;;;0.90;0.70;;;18.00;99.90;;;;;;5014894;28;20195;-72
2022/04/21 06:08:06;;;;;;;0.87;0.63;;;18.60;99.90;;;;;;5014824;28;20211;-73
2022/04/21 06:10:33;;;;;;;1.87;0.90;;;19.20;99.90;;;;;;5014596;28;20188;-72
2022/04/21 06:12:58;;;;;;;1.30;1.07;;;19.80;95.70;;;;;;5014780;28;20395;-73
2022/04/21 06:15:24;;;;;;;1.30;1.20;;;20.30;92.30;;;;;;5014773;28;20461;-73
2022/04/21 06:17:50;;;;;;;6.83;1.17;;;21.00;85.60;;;;;;5014463;28;20180;-73
2022/04/21 06:20:15;;;;;;;1.43;0.80;;;21.50;75.80;;;;;;5014563;28;20469;-73
2022/04/21 06:22:41;;;;;;;1.30;1.00;;;22.10;72.60;;;;;;5014337;28;20180;-73
2022/04/21 06:25:07;;;;;;;1.00;0.90;;;22.60;65.70;;;;;;5014556;28;20195;-73
2022/04/21 06:27:32;;;;;;;1.90;1.40;;;23.10;60.80;;;;;;5014531;28;20191;-73
2022/04/21 06:29:59;;;;;;;1.10;1.00;;;23.70;59.30;;;;;;5013202;28;20634;-73
2022/04/21 06:32:25;;;;;;;1.20;1.10;;;24.20;56.80;;;;;;5014274;28;20161;-73
2022/04/21 06:34:50;;;;;;;1.27;1.13;;;24.60;55.00;;;;;;5014333;28;20460;-73
2022/04/21 06:37:16;;;;;;;1.03;0.93;;;25.10;53.30;;;;;;5014213;28;20419;-73
2022/04/21 06:39:41;;;;;;;1.23;1.13;;;25.50;52.70;;;;;;5014276;28;20196;-73
2022/04/21 06:42:07;;;;;;;1.00;0.80;;;26.00;52.00;;;;;;5013987;28;20168;-74
2022/04/21 06:50:01;;;;;;;1.33;1.23;;;27.50;48.30;;;;;;5014376;28;20402;-73
2022/04/21 06:52:27;;;;;;;1.30;1.20;;;27.90;47.30;;;;;;5012621;28;20434;-73
2022/04/21 06:54:53;;;;;;;1.10;1.00;;;28.20;46.30;;;;;;5013869;28;20935;-73
2022/04/21 06:57:19;;;;;;;1.37;1.27;;;28.60;45.10;;;;;;5013927;28;20437;-73
2022/04/21 06:59:45;;;;;;;1.40;1.30;;;29.00;44.50;;;;;;5012778;28;20173;-73
2022/04/21 07:02:12;;;;;;;1.30;1.20;;;29.30;44.40;;;;;;5028903;28;21279;-73
2022/04/21 07:04:38;;;;;;;1.30;1.17;;;29.70;44.70;;;;;;5013804;28;20188;-73
2022/04/21 07:07:04;;;;;;;2.07;1.20;;;30.10;43.90;;;;;;5013434;28;21165;-74
2022/04/21 07:09:30;;;;;;;1.20;0.80;;;30.40;42.60;;;;;;5013872;28;20641;-73
2022/04/21 07:11:56;;;;;;;1.77;1.40;;;30.70;42.60;;;;;;5011027;28;20493;-73
2022/04/21 07:14:22;;;;;;;2.20;1.80;;;31.10;40.30;;;;;;5011714;28;20418;-73
2022/04/21 07:16:47;;;;;;;1.97;1.37;;;31.60;39.40;;;;;;5013452;28;20936;-73
2022/04/21 07:19:13;;;;;;;1.80;1.03;;;32.00;38.20;;;;;;5013514;28;20658;-74
2022/04/21 07:21:38;;;;;;;1.40;1.20;;;32.40;37.70;;;;;;5013033;28;20250;-74
2022/04/21 07:24:04;;;;;;;1.50;1.10;;;32.90;37.10;;;;;;5013106;28;20250;-74
2022/04/21 07:26:29;;;;;;;1.20;1.10;;;33.30;36.70;;;;;;5013262;28;20549;-73
2022/04/21 07:28:56;;;;;;;1.30;1.20;;;33.70;36.30;;;;;;5013022;28;20175;-73
2022/04/21 07:31:22;;;;;;;1.53;1.43;;;34.20;35.30;;;;;;5012908;28;20239;-73
2022/04/21 07:33:47;;;;;;;1.67;1.10;;;34.70;35.10;;;;;;5013063;28;20407;-74
2022/04/21 07:36:13;;;;;;;1.47;1.37;;;35.00;34.90;;;;;;5012933;28;20171;-74
2022/04/21 07:38:38;;;;;;;3.63;2.27;;;35.20;34.20;;;;;;5013025;28;20646;-74
2022/04/21 07:41:04;;;;;;;1.27;1.17;;;35.50;33.30;;;;;;5012692;28;20183;-74
2022/04/21 07:43:32;;;;;;;1.20;1.10;;;35.50;33.40;;;;;;5012747;28;20167;-74
2022/04/21 07:45:58;;;;;;;2.07;1.53;;;35.60;33.50;;;;;;5012616;28;20565;-74
2022/04/21 07:49:44;;;;;;;1.97;1.20;;;35.70;33.40;;;;;;5012808;28;20396;-74
2022/04/21 07:51:08;;;;;;;1.40;1.20;;;36.10;33.00;;;;;;5012399;28;20223;-74
2022/04/21 07:53:34;;;;;;;1.70;1.60;;;36.70;32.10;;;;;;5012730;28;20407;-74
2022/04/21 07:56:00;;;;;;;1.67;1.30;;;36.60;31.40;;;;;;5012487;28;20219;-74
2022/04/21 07:58:27;;;;;;;3.10;1.50;;;36.10;32.00;;;;;;5012580;28;20539;-74
2022/04/21 08:00:52;;;;;;;1.60;1.30;;;35.50;32.50;;;;;;5012318;28;20192;-73
2022/04/21 08:03:19;;;;;;;1.40;1.30;;;35.30;32.40;;;;;;5012583;28;21040;-73
2022/04/21 08:05:46;;;;;;;1.60;1.33;;;35.70;32.30;;;;;;5012400;28;20228;-74
2022/04/21 08:08:11;;;;;;;1.97;1.77;;;36.20;31.80;;;;;;5027590;28;20430;-74
2022/04/21 08:10:37;;;;;;;1.20;1.10;;;36.90;31.60;;;;;;5012252;28;20404;-73
2022/04/21 08:13:02;;;;;;;1.10;1.00;;;37.20;31.00;;;;;;5012811;28;20584;-73
2022/04/21 08:15:33;;;;;;;1.30;1.20;;;37.50;30.60;;;;;;5012459;28;20602;-73
2022/04/21 08:18:07;;;;;;;1.93;1.37;;;38.10;30.60;;;;;;5012396;28;20303;-74
2022/04/21 08:20:34;;;;;;;1.93;1.47;;;39.00;30.70;;;;;;5012476;28;20432;-74
2022/04/21 08:23:00;;;;;;;1.37;1.00;;;39.70;30.00;;;;;;5012003;28;20415;-74
2022/04/21 08:33:38;;;;;;;1.50;1.40;;;42.20;27.70;;;;;;5012394;28;20414;-74
2022/04/21 08:36:04;;;;;;;1.63;1.20;;;42.70;26.50;;;;;;5012176;28;20407;-74
2022/04/21 08:38:30;;;;;;;1.50;1.40;;;43.10;27.00;;;;;;5012344;28;20168;-74
2022/04/21 08:41:04;;;;;;;1.60;1.50;;;43.40;26.70;;;;;;5012044;28;20255;-74
2022/04/21 08:43:30;;;;;;;1.13;1.03;;;43.80;27.20;;;;;;5012111;28;20408;-74
2022/04/21 08:45:56;;;;;;;1.50;1.40;;;44.00;26.50;;;;;;5012218;28;20450;-74
2022/04/21 08:48:24;;;;;;;1.47;1.37;;;43.90;26.10;;;;;;5010898;28;20405;-74
2022/04/21 08:50:50;;;;;;;1.73;1.63;;;44.10;26.50;;;;;;5011905;28;20395;-74
2022/04/21 08:53:21;;;;;;;2.20;1.70;;;44.00;26.20;;;;;;5011990;28;20396;-74
2022/04/21 08:55:48;;;;;;;1.60;1.50;;;43.90;26.30;;;;;;5012116;28;20423;-74
2022/04/21 08:58:14;;;;;;;1.30;1.20;;;44.00;26.40;;;;;;5011856;28;20510;-74
2022/04/21 09:00:42;;;;;;;1.60;1.30;;;44.20;25.90;;;;;;5012012;28;20374;-74
2022/04/21 09:03:08;;;;;;;1.87;1.73;;;44.20;25.70;;;;;;5011899;28;20807;-74
2022/04/21 09:05:34;;;;;;;1.20;1.10;;;43.90;25.80;;;;;;5011993;28;20451;-74
2022/04/21 09:08:00;;;;;;;1.50;1.40;;;44.10;26.00;;;;;;5011835;28;20423;-74
2022/04/21 09:10:28;;;;;;;1.30;1.20;;;44.40;25.80;;;;;;5012012;28;20233;-74
2022/04/21 09:12:59;;;;;;;1.50;1.40;;;44.10;25.00;;;;;;5011676;28;20172;-74
2022/04/21 09:15:36;;;;;;;1.83;1.00;;;43.00;25.20;;;;;;5012431;28;20385;-77
2022/04/21 09:18:08;;;;;;;1.83;1.43;;;41.90;25.70;;;;;;5013139;28;20433;-77
2022/04/21 09:20:39;;;;;;;2.20;1.30;;;41.50;25.70;;;;;;5012939;28;20501;-77
2022/04/21 09:23:10;;;;;;;1.60;1.50;;;41.20;25.80;;;;;;5012706;28;20429;-77
2022/04/21 09:25:50;;;;;;;1.50;1.40;;;41.60;26.10;;;;;;5016007;28;20534;-77
2022/04/21 09:28:27;;;;;;;1.37;1.27;;;42.70;25.80;;;;;;5015575;28;20397;-77
2022/04/21 09:30:56;;;;;;;1.40;1.30;;;43.60;25.40;;;;;;5016868;28;20391;-77
2022/04/21 09:33:34;;;;;;;1.30;1.20;;;43.80;25.00;;;;;;5017610;28;20408;-77
2022/04/21 09:36:03;;;;;;;1.33;1.23;;;44.30;25.50;;;;;;5016629;28;20486;-77
2022/04/21 09:38:29;;;;;;;1.50;1.40;;;45.00;25.00;;;;;;5015807;28;20411;-77
2022/04/21 09:40:55;;;;;;;1.30;1.10;;;45.90;24.70;;;;;;5015693;28;20500;-77
2022/04/21 09:43:31;;;;;;;1.47;1.20;;;46.80;24.10;;;;;;5015997;28;20164;-77
2022/04/21 09:46:17;;;;;;;1.53;1.23;;;47.90;24.20;;;;;;5014655;28;20546;-77
2022/04/21 09:48:43;;;;;;;1.80;1.40;;;49.00;23.40;;;;;;5016035;28;20403;-77
2022/04/21 09:51:23;;;;;;;1.57;1.47;;;49.80;23.10;;;;;;5016041;28;20404;-78
2022/04/21 09:53:55;;;;;;;1.27;1.17;;;50.40;22.80;;;;;;5016385;28;20419;-77
2022/04/21 09:56:29;;;;;;;1.17;1.07;;;50.40;21.10;;;;;;5016393;28;20861;-77
2022/04/21 09:58:55;;;;;;;1.40;1.30;;;50.10;20.50;;;;;;5015089;28;20460;-78
2022/04/21 10:01:21;;;;;;;1.30;1.20;;;50.20;20.80;;;;;;5016030;28;20480;-78
2022/04/21 10:03:48;;;;;;;1.20;1.10;;;50.30;20.90;;;;;;5016337;28;20322;-77
2022/04/21 10:06:16;;;;;;;1.37;1.27;;;50.30;20.70;;;;;;5015775;28;20497;-77
2022/04/21 10:08:43;;;;;;;1.40;1.30;;;50.70;20.70;;;;;;5016401;28;20385;-78
2022/04/21 10:11:09;;;;;;;1.40;1.30;;;51.30;20.90;;;;;;5016182;28;20378;-78
2022/04/21 10:13:35;;;;;;;1.63;1.50;;;51.40;20.90;;;;;;5016054;28;20959;-77
2022/04/21 10:16:01;;;;;;;1.70;1.60;;;51.90;21.10;;;;;;5015558;28;20385;-78
2022/04/21 10:18:27;;;;;;;1.53;1.43;;;52.20;20.50;;;;;;5015893;28;20403;-77
2022/04/21 10:20:55;;;;;;;1.40;1.30;;;52.10;20.80;;;;;;5015692;28;20176;-78
2022/04/21 10:23:22;;;;;;;1.60;1.50;;;52.10;20.90;;;;;;5015817;28;20422;-77
2022/04/21 10:25:59;;;;;;;1.70;1.60;;;52.10;20.70;;;;;;5015701;28;20429;-78
2022/04/21 10:28:39;;;;;;;1.60;1.50;;;51.90;20.40;;;;;;5015907;28;20416;-77
2022/04/21 10:31:30;;;;;;;1.50;1.40;;;51.20;19.90;;;;;;5014283;28;20370;-76
2022/04/21 10:34:00;;;;;;;1.90;1.73;;;49.30;19.80;;;;;;5014215;28;20373;-77
2022/04/21 10:36:35;;;;;;;1.30;1.20;;;47.30;20.50;;;;;;5014399;28;20400;-76
2022/04/21 10:39:25;;;;;;;1.30;1.20;;;46.60;21.40;;;;;;5013363;28;20904;-77
2022/04/21 10:42:10;;;;;;;1.17;1.07;;;45.80;21.00;;;;;;5014953;28;20407;-76
2022/04/21 10:44:50;;;;;;;1.00;0.90;;;44.60;21.10;;;;;;5014244;28;20783;-76
2022/04/21 10:47:36;;;;;;;0.90;0.80;;;43.00;21.60;;;;;;5014133;28;20415;-76
2022/04/21 10:50:12;;;;;;;1.30;1.20;;;41.70;22.60;;;;;;5014130;28;20407;-76
2022/04/21 10:57:55;;;;;;;1.10;1.00;;;42.10;22.80;;;;;;5013937;28;20970;-76
2022/04/21 11:00:29;;;;;;;1.30;1.20;;;41.50;22.50;;;;;;5013945;28;20418;-76
2022/04/21 11:03:10;;;;;;;1.13;0.90;;;40.80;22.80;;;;;;5013705;28;20897;-76
2022/04/21 11:05:38;;;;;;;1.20;1.00;;;40.30;23.30;;;;;;5013832;28;20534;-76
2022/04/21 11:08:11;;;;;;;1.83;1.30;;;40.10;23.30;;;;;;5013694;28;20589;-76
2022/04/21 11:10:45;;;;;;;1.50;1.30;;;40.00;23.20;;;;;;5013840;28;20815;-76
2022/04/21 11:13:13;;;;;;;1.93;1.17;;;39.50;23.40;;;;;;5028728;28;20421;-75
2022/04/21 11:15:49;;;;;;;3.37;1.10;;;39.00;23.90;;;;;;5013748;28;20946;-75
2022/04/21 11:18:27;;;;;;;1.20;1.10;;;38.70;24.20;;;;;;5013488;28;20442;-75
2022/04/21 11:21:26;;;;;;;2.37;1.60;;;38.00;24.40;;;;;;5013598;28;20411;-75
2022/04/21 11:23:52;;;;;;;1.57;1.33;;;37.00;24.80;;;;;;5013498;28;20403;-75
2022/04/21 11:26:25;;;;;;;1.20;1.10;;;36.00;25.40;;;;;;5013307;28;20463;-75
2022/04/21 11:28:51;;;;;;;1.40;1.27;;;35.20;25.60;;;;;;5013452;28;20523;-75
2022/04/21 11:31:20;;;;;;;1.30;1.20;;;34.60;25.90;;;;;;5013120;28;20418;-75
2022/04/21 11:33:45;;;;;;;1.30;1.10;;;34.20;26.50;;;;;;5013355;28;20246;-75
2022/04/21 11:36:15;;;;;;;1.20;1.10;;;34.00;27.00;;;;;;5028381;28;20465;-75
2022/04/21 11:38:43;;;;;;;3.67;1.10;;;33.60;27.40;;;;;;5013262;28;20725;-75
2022/04/21 11:41:11;;;;;;;1.20;1.00;;;33.40;27.60;;;;;;5012912;28;20407;-75
2022/04/21 11:43:44;;;;;;;1.20;1.10;;;33.20;27.80;;;;;;5013393;28;20411;-75
2022/04/21 11:46:12;;;;;;;1.00;0.90;;;33.00;27.90;;;;;;5012410;28;20478;-75
2022/04/21 11:48:40;;;;;;;1.73;1.53;;;32.90;28.30;;;;;;5013124;28;20493;-75
2022/04/21 11:51:07;;;;;;;1.93;1.73;;;32.60;28.50;;;;;;5012821;28;20422;-74
2022/04/21 11:53:43;;;;;;;1.23;1.13;;;32.50;28.90;;;;;;5012926;28;20461;-75
2022/04/21 11:56:10;;;;;;;1.50;1.30;;;32.00;28.80;;;;;;5012927;28;20436;-75
2022/04/21 11:58:38;;;;;;;4.50;1.77;;;31.80;29.50;;;;;;5011699;28;20411;-75
2022/04/21 12:06:50;;;;;;;1.47;1.27;;;33.20;29.30;;;;;;5013095;28;20461;-75
2022/04/21 12:09:17;;;;;;;1.63;1.40;;;34.20;28.70;;;;;;5012701;28;20522;-76
2022/04/21 12:11:50;;;;;;;1.20;1.10;;;34.30;28.50;;;;;;5012507;28;20407;-75
2022/04/21 12:14:16;;;;;;;1.20;1.10;;;34.50;28.20;;;;;;5011322;28;20411;-75
2022/04/21 12:16:47;;;;;;;1.27;1.10;;;35.30;28.50;;;;;;5012515;28;20427;-75
2022/04/21 12:19:33;;;;;;;1.50;1.10;;;36.50;27.90;;;;;;5012773;28;20414;-76
2022/04/21 12:22:02;;;;;;;1.67;1.57;;;37.80;27.40;;;;;;5027514;28;20410;-76
2022/04/21 12:24:55;;;;;;;1.90;1.77;;;39.20;27.00;;;;;;5012245;28;20886;-76
2022/04/21 12:27:23;;;;;;;1.20;1.10;;;39.30;25.80;;;;;;5010306;28;20967;-76
2022/04/21 12:29:52;;;;;;;1.70;1.00;;;39.60;25.80;;;;;;5012401;28;20889;-76
2022/04/21 12:32:25;;;;;;;1.50;1.37;;;40.80;26.00;;;;;;5012309;28;20529;-76
2022/04/21 12:34:54;;;;;;;1.50;1.40;;;42.30;25.50;;;;;;5012527;28;20411;-76
2022/04/21 12:37:31;;;;;;;2.03;1.83;;;43.70;25.10;;;;;;5011106;28;20512;-76
2022/04/21 12:39:58;;;;;;;2.00;1.60;;;44.90;24.40;;;;;;5012461;28;20415;-76
2022/04/21 12:42:24;;;;;;;2.20;1.77;;;45.90;24.20;;;;;;5012690;28;20555;-77
2022/04/21 12:44:51;;;;;;;1.77;1.67;;;46.80;23.90;;;;;;5012923;28;20432;-76
2022/04/21 12:47:18;;;;;;;1.47;1.37;;;47.10;23.30;;;;;;5012601;28;20767;-77
2022/04/21 12:49:52;;;;;;;1.70;1.33;;;47.70;23.40;;;;;;5013249;28;20374;-77
2022/04/21 12:52:34;;;;;;;1.40;1.30;;;48.10;22.90;;;;;;5012565;28;20390;-76
2022/04/21 12:55:02;;;;;;;1.97;1.87;;;47.80;23.00;;;;;;5011427;28;20435;-77
2022/04/21 12:57:28;;;;;;;1.33;1.23;;;48.00;22.90;;;;;;5013552;28;20437;-76
2022/04/21 12:59:55;;;;;;;1.60;1.50;;;47.80;23.10;;;;;;5016616;28;20417;-77
2022/04/21 13:02:20;;;;;;;1.70;1.40;;;47.40;22.90;;;;;;5016645;28;20172;-77
2022/04/21 13:04:47;;;;;;;1.40;1.30;;;46.90;23.00;;;;;;5016246;28;20509;-76
2022/04/21 13:07:13;;;;;;;1.60;1.50;;;45.30;22.70;;;;;;5016043;28;20220;-76
2022/04/21 13:09:38;;;;;;;1.50;1.40;;;43.30;23.00;;;;;;5015893;28;20382;-76
2022/04/21 13:12:05;;;;;;;1.20;1.10;;;41.40;23.50;;;;;;5015775;28;20164;-76
2022/04/21 13:14:30;;;;;;;1.30;1.20;;;39.80;24.40;;;;;;5015852;28;20172;-76
2022/04/21 13:16:56;;;;;;;2.00;1.30;;;38.30;25.30;;;;;;5015776;28;20477;-75
2022/04/21 13:19:22;;;;;;;1.30;1.13;;;36.90;26.20;;;;;;5015946;28;20172;-76
2022/04/21 13:21:55;;;;;;;1.07;0.90;;;36.30;27.30;;;;;;5015512;28;21033;-76
2022/04/21 13:24:25;;;;;;;1.20;1.10;;;37.40;27.80;;;;;;5015807;28;20164;-76
2022/04/21 13:26:52;;;;;;;1.53;1.30;;;39.10;27.40;;;;;;5015689;28;21070;-76
2022/04/21 13:29:18;;;;;;;1.23;1.13;;;40.60;26.70;;;;;;5015772;28;20403;-76
2022/04/21 13:34:28;;;;;;;1.80;1.70;;;41.70;25.70;;;;;;5015640;28;20512;-76
2022/04/21 13:36:54;;;;;;;1.60;1.50;;;40.50;25.50;;;;;;5015455;28;20539;-76
2022/04/21 13:39:20;;;;;;;1.50;1.33;;;38.90;25.90;;;;;;5014170;28;20168;-76
2022/04/21 13:41:48;;;;;;;2.20;2.00;;;37.40;26.50;;;;;;5015192;28;20410;-75
2022/04/21 13:44:14;;;;;;;1.20;1.10;;;36.40;27.10;;;;;;5015308;28;20168;-75